Terminal Aerodrome Forecast
Issued by NWS Upton, NY

Home | Current Version | Previous Version | Text Only | Print | Product List | Glossary On
Versions: 1 2 3 4 5 6 7 8 9 10 11 12 13 14 15 16 17 18 19 20 21 22 23 24 25 26 27 28 29 30 31
175
FTUS41 KOKX 052324
TAFJFK
TAF
KJFK 052324Z 0600/0706 32016G24KT P6SM SCT070
     FM060300 33012G20KT P6SM SKC
     FM060600 30006KT P6SM SCT250
     FM061200 26006KT P6SM BKN250
     FM061600 22010KT P6SM BKN250=

USA.gov is the U.S. government's official web portal to all federal, state and local government web resources and services.